Time;durP1;ratioP1;P1;durP2;ratioP2;P2;SDS_P1;SDS_P2;PMS_P1;PMS_P2;Temp;Humidity;BMP_temperature;BMP_pressure;BME280_temperature;BME280_humidity;BME280_pressure;Samples;Min_cycle;Max_cycle;Signal;HPM_P1;HPM_P2
2022/06/26 00:01:13;;;;;;;4.85;2.65;;;;;;;20.32;68.89;94624.50;4205701;28;20063;-57
2022/06/26 00:03:15;;;;;;;4.80;2.38;;;;;;;20.37;68.78;94621.97;4210355;28;20051;-56
2022/06/26 00:05:17;;;;;;;5.35;2.85;;;;;;;20.38;68.70;94624.41;4211193;28;20043;-56
2022/06/26 00:07:18;;;;;;;6.32;2.75;;;;;;;20.35;68.31;94616.06;4201396;28;20596;-55
2022/06/26 00:09:21;;;;;;;8.48;2.80;;;;;;;20.35;68.21;94616.88;4212268;28;20067;-57
2022/06/26 00:11:23;;;;;;;6.85;2.80;;;;;;;20.34;68.31;94625.09;4209171;28;20055;-58
2022/06/26 00:13:41;;;;;;;7.00;3.13;;;;;;;20.24;68.14;94621.09;4218935;28;20044;-58
2022/06/26 00:15:43;;;;;;;6.25;2.67;;;;;;;20.24;68.25;94628.25;4193751;28;20110;-61
2022/06/26 00:17:45;;;;;;;5.43;2.85;;;;;;;20.24;68.46;94630.91;4213195;28;20077;-57
2022/06/26 00:19:47;;;;;;;7.18;2.78;;;;;;;20.21;68.41;94629.50;4214118;27;20133;-58
2022/06/26 00:21:50;;;;;;;6.65;2.80;;;;;;;20.17;68.71;94635.50;4208074;28;20044;-56
2022/06/26 00:23:52;;;;;;;7.22;3.20;;;;;;;20.13;68.67;94634.28;4210323;28;20040;-56
2022/06/26 00:25:54;;;;;;;8.65;3.58;;;;;;;20.13;69.04;94627.13;4209355;28;20043;-57
2022/06/26 00:27:55;;;;;;;4.68;2.92;;;;;;;20.12;69.11;94622.84;4194272;28;20279;-56
2022/06/26 00:29:57;;;;;;;6.45;3.40;;;;;;;20.17;69.16;94622.19;4192810;28;20461;-57
2022/06/26 00:32:00;;;;;;;8.48;3.75;;;;;;;20.23;69.08;94613.34;4192999;28;20188;-56
2022/06/26 00:34:02;;;;;;;7.60;3.53;;;;;;;20.24;68.94;94615.78;4206672;28;20409;-57
2022/06/26 00:36:04;;;;;;;8.77;3.70;;;;;;;20.26;68.87;94615.53;4199389;28;20056;-54
2022/06/26 00:38:05;;;;;;;7.72;3.33;;;;;;;20.31;68.52;94614.91;4200580;28;20049;-56
2022/06/26 00:40:08;;;;;;;6.10;3.95;;;;;;;20.34;67.93;94612.59;4205053;28;20480;-56
2022/06/26 00:42:10;;;;;;;6.78;3.60;;;;;;;20.37;68.17;94611.31;4208945;28;20051;-56
2022/06/26 00:44:21;;;;;;;6.10;3.60;;;;;;;20.38;68.21;94611.13;4209179;28;20109;-55
2022/06/26 00:46:26;;;;;;;7.90;3.58;;;;;;;20.43;67.91;94605.97;4197200;28;20048;-57
2022/06/26 00:48:28;;;;;;;7.25;3.30;;;;;;;20.43;67.71;94613.94;4208452;28;20059;-56
2022/06/26 00:50:30;;;;;;;9.95;3.53;;;;;;;20.45;67.26;94611.84;4204708;28;20055;-57
2022/06/26 00:52:32;;;;;;;7.97;3.58;;;;;;;20.49;67.31;94616.75;4208759;28;20044;-56
2022/06/26 00:54:34;;;;;;;7.75;3.50;;;;;;;20.49;66.96;94614.06;4209795;28;20101;-56
2022/06/26 00:56:37;;;;;;;10.80;3.35;;;;;;;20.52;67.12;94613.63;4206949;28;20068;-57
2022/06/26 00:58:39;;;;;;;8.70;3.50;;;;;;;20.53;66.95;94615.25;4207260;28;20055;-58
2022/06/26 01:00:41;;;;;;;10.13;3.95;;;;;;;20.55;67.08;94615.84;4220361;28;20055;-57
2022/06/26 01:02:43;;;;;;;5.70;3.63;;;;;;;20.49;67.99;94619.41;4211222;28;20051;-57
2022/06/26 01:04:45;;;;;;;8.15;3.65;;;;;;;20.45;68.35;94613.69;4222129;28;20116;-57
2022/06/26 01:06:47;;;;;;;9.45;4.00;;;;;;;20.47;68.53;94614.28;4209438;28;20059;-55
2022/06/26 01:08:49;;;;;;;6.28;3.33;;;;;;;20.49;68.77;94622.88;4208173;28;20445;-58
2022/06/26 01:10:51;;;;;;;6.07;3.38;;;;;;;20.50;68.38;94621.84;4208763;28;20484;-58
2022/06/26 01:12:53;;;;;;;6.45;3.35;;;;;;;20.50;67.95;94613.88;4208122;28;20048;-57
2022/06/26 01:14:55;;;;;;;10.25;3.20;;;;;;;20.49;67.83;94617.53;4220218;28;20063;-57
2022/06/26 01:16:56;;;;;;;8.15;3.67;;;;;;;20.49;67.92;94630.84;4215860;28;20449;-60
2022/06/26 01:18:59;;;;;;;10.00;3.53;;;;;;;20.47;68.15;94624.94;4209724;28;20048;-55
2022/06/26 01:21:00;;;;;;;10.23;3.20;;;;;;;20.49;67.95;94628.19;4207491;28;20035;-56
2022/06/26 01:23:04;;;;;;;9.52;3.17;;;;;;;20.48;67.49;94629.22;4222894;28;20134;-56
2022/06/26 01:25:06;;;;;;;8.48;3.28;;;;;;;20.42;67.51;94625.59;4209096;28;20113;-54
2022/06/26 01:27:09;;;;;;;6.68;3.10;;;;;;;20.44;67.61;94626.19;4219922;28;20063;-56
2022/06/26 01:29:11;;;;;;;5.85;2.95;;;;;;;20.43;67.49;94626.41;4202294;28;20511;-54
2022/06/26 01:33:43;;;;;;;6.85;3.00;;;;;;;20.41;67.24;94628.47;4196332;28;20040;-58
2022/06/26 01:35:45;;;;;;;9.60;2.92;;;;;;;20.42;67.33;94627.47;4208390;28;20456;-58
2022/06/26 01:37:47;;;;;;;7.18;3.15;;;;;;;20.41;67.49;94631.97;4197774;28;20057;-57
2022/06/26 01:39:49;;;;;;;6.07;2.63;;;;;;;20.43;67.47;94624.59;4206739;28;20048;-59
2022/06/26 01:41:50;;;;;;;7.28;2.97;;;;;;;20.46;67.43;94628.66;4215787;28;20036;-56
2022/06/26 01:43:52;;;;;;;5.75;3.08;;;;;;;20.48;67.59;94628.41;4203641;28;20147;-55
2022/06/26 01:45:55;;;;;;;6.80;3.10;;;;;;;20.44;67.81;94631.53;4212154;28;20116;-56
2022/06/26 01:47:57;;;;;;;5.28;2.85;;;;;;;20.39;68.42;94636.69;4212967;28;20117;-56
2022/06/26 01:49:59;;;;;;;7.28;2.75;;;;;;;20.40;68.28;94638.31;4209666;28;20498;-57
2022/06/26 01:52:01;;;;;;;6.55;2.92;;;;;;;20.43;67.96;94640.53;4207279;28;20113;-56
2022/06/26 01:54:02;;;;;;;6.70;2.90;;;;;;;20.44;68.10;94647.47;4208382;28;20063;-53
2022/06/26 01:56:04;;;;;;;6.88;3.00;;;;;;;20.44;68.03;94647.47;4212260;28;20052;-56
2022/06/26 01:58:07;;;;;;;6.93;2.65;;;;;;;20.42;67.45;94648.75;4197933;28;20279;-57
2022/06/26 02:00:09;;;;;;;4.35;2.17;;;;;;;20.43;67.13;94653.84;4210229;28;20043;-58
2022/06/26 02:02:11;;;;;;;5.95;2.63;;;;;;;20.42;66.51;94654.06;4209291;28;20047;-58
2022/06/26 02:04:16;;;;;;;9.68;2.22;;;;;;;20.43;66.66;94661.00;4208572;28;20126;-55
2022/06/26 02:06:18;;;;;;;2.67;1.85;;;;;;;20.42;66.49;94654.06;4198891;28;20044;-56
2022/06/26 02:08:19;;;;;;;4.35;2.58;;;;;;;20.42;66.46;94659.38;4192057;28;20060;-58
2022/06/26 02:15:03;;;;;;;6.20;2.40;;;;;;;20.35;66.56;94670.09;4205941;28;20087;-57
2022/06/26 02:17:05;;;;;;;9.63;2.63;;;;;;;20.38;66.78;94669.66;4209063;28;20457;-57
2022/06/26 02:19:07;;;;;;;6.13;2.38;;;;;;;20.39;66.58;94665.97;4202533;28;20113;-56
2022/06/26 02:21:11;;;;;;;5.22;2.60;;;;;;;20.36;66.74;94661.06;4191751;28;20539;-56
2022/06/26 02:23:13;;;;;;;;;;;;;;;20.35;67.05;94659.47;4192830;28;20109;-56
2022/06/26 02:25:14;;;;;;;6.57;2.92;;;;;;;20.38;67.18;94653.69;4191475;28;19982;-56
2022/06/26 02:27:16;;;;;;;5.13;2.42;;;;;;;20.40;67.28;94651.63;4211161;28;20108;-58
2022/06/26 02:29:18;;;;;;;8.95;2.80;;;;;;;20.41;67.63;94650.59;4213415;28;20586;-55
2022/06/26 02:31:19;;;;;;;6.28;3.00;;;;;;;20.45;67.77;94654.41;4196846;28;20125;-56
2022/06/26 02:33:22;;;;;;;4.75;2.92;;;;;;;20.46;67.68;94655.25;4203161;28;20044;-56
2022/06/26 02:35:25;;;;;;;4.78;2.35;;;;;;;20.46;67.47;94656.06;4208178;28;20055;-59
2022/06/26 02:37:27;;;;;;;9.57;3.03;;;;;;;20.41;67.45;94655.09;4194793;28;20064;-57
2022/06/26 02:39:29;;;;;;;5.20;2.60;;;;;;;20.36;67.69;94655.75;4208287;28;20060;-58
2022/06/26 02:41:30;;;;;;;6.32;3.55;;;;;;;20.36;67.84;94655.75;4208013;28;20101;-56
2022/06/26 02:43:33;;;;;;;8.77;2.92;;;;;;;20.41;68.07;94658.56;4208410;28;20124;-59
2022/06/26 02:45:35;;;;;;;6.75;2.95;;;;;;;20.44;67.81;94662.63;4207042;28;20531;-58
2022/06/26 02:47:37;;;;;;;5.65;2.78;;;;;;;20.43;67.79;94671.63;4207999;28;20445;-56
2022/06/26 02:49:39;;;;;;;5.93;2.50;;;;;;;20.41;67.71;94676.38;4207877;28;20052;-58
2022/06/26 02:51:41;;;;;;;4.53;2.53;;;;;;;20.20;68.62;94677.63;4206606;28;20082;-56
2022/06/26 02:53:43;;;;;;;8.63;2.72;;;;;;;19.95;69.05;94681.09;4211328;28;20538;-57
2022/06/26 02:55:44;;;;;;;6.45;3.22;;;;;;;19.59;70.80;94681.75;4198521;28;20098;-58
2022/06/26 02:57:46;;;;;;;5.85;3.35;;;;;;;19.44;71.86;94676.75;4204508;28;20659;-57
2022/06/26 02:59:48;;;;;;;5.88;3.10;;;;;;;19.30;73.10;94676.03;4209461;28;20086;-59
2022/06/26 03:01:50;;;;;;;7.63;3.78;;;;;;;19.33;73.14;94682.75;4212830;28;20055;-57
2022/06/26 03:03:51;;;;;;;8.63;5.30;;;;;;;19.21;73.72;94679.97;4210962;28;20043;-57
2022/06/26 03:05:53;;;;;;;6.13;4.40;;;;;;;19.22;74.37;94685.03;4197121;28;20131;-55
2022/06/26 03:07:56;;;;;;;7.13;4.15;;;;;;;19.33;74.53;94677.44;4208524;28;20056;-55
2022/06/26 03:09:57;;;;;;;7.80;4.05;;;;;;;19.45;74.32;94681.03;4212294;28;20243;-58
2022/06/26 03:11:59;;;;;;;8.50;3.83;;;;;;;19.60;73.87;94689.50;4211069;28;20059;-58
2022/06/26 03:14:01;;;;;;;8.05;4.18;;;;;;;19.75;73.53;94688.44;4210841;28;20090;-57
2022/06/26 03:16:03;;;;;;;7.80;4.60;;;;;;;19.75;73.16;94686.56;4209315;28;20485;-57
2022/06/26 03:18:05;;;;;;;6.78;4.85;;;;;;;19.30;74.50;94694.63;4209355;28;20610;-58
2022/06/26 03:20:11;;;;;;;11.23;4.50;;;;;;;18.85;76.50;94691.97;4204329;28;20156;-56
2022/06/26 03:22:13;;;;;;;9.50;4.53;;;;;;;18.70;77.56;94694.84;4216895;28;20148;-56
2022/06/26 03:24:15;;;;;;;17.55;5.10;;;;;;;18.56;78.33;94693.25;4217962;28;20165;-56
2022/06/26 03:26:16;;;;;;;10.70;4.88;;;;;;;18.53;79.05;94696.34;4209994;28;20140;-57
2022/06/26 03:28:18;;;;;;;10.85;4.22;;;;;;;18.46;77.89;94700.84;4210660;28;20048;-56
2022/06/26 03:30:20;;;;;;;10.93;4.40;;;;;;;18.55;78.41;94696.94;4220212;28;20062;-57
2022/06/26 03:32:22;;;;;;;8.82;4.00;;;;;;;18.71;77.49;94696.47;4199358;28;20075;-53
2022/06/26 03:34:24;;;;;;;8.05;3.67;;;;;;;18.88;76.78;94707.47;4202916;28;20126;-55
2022/06/26 03:36:27;;;;;;;7.80;3.90;;;;;;;19.01;75.75;94695.97;4221720;28;20055;-55
2022/06/26 03:38:29;;;;;;;8.38;4.10;;;;;;;19.15;75.19;94702.84;4212540;28;20545;-55
2022/06/26 03:40:31;;;;;;;7.20;4.07;;;;;;;19.31;74.53;94700.72;4195775;28;20117;-57
2022/06/26 03:42:33;;;;;;;5.70;3.35;;;;;;;19.44;73.58;94705.97;4210205;28;20508;-57
2022/06/26 03:44:35;;;;;;;5.43;3.20;;;;;;;19.57;72.80;94710.38;4210442;28;20481;-56
2022/06/26 03:46:37;;;;;;;14.65;3.58;;;;;;;19.67;72.42;94702.75;4210045;28;20059;-56
2022/06/26 03:48:40;;;;;;;;;;;;;;;19.77;71.86;94710.28;4211247;28;20518;-56
2022/06/26 03:50:42;;;;;;;6.10;3.88;;;;;;;19.83;71.51;94710.25;4210377;28;19936;-56
2022/06/26 03:52:43;;;;;;;8.57;3.72;;;;;;;19.91;71.41;94714.47;4209227;28;20150;-57
2022/06/26 03:54:45;;;;;;;7.05;3.50;;;;;;;19.96;71.53;94716.47;4197814;28;20067;-57
2022/06/26 03:56:47;;;;;;;14.48;5.35;;;;;;;19.83;72.00;94714.72;4210479;28;20500;-57
2022/06/26 03:58:49;;;;;;;12.60;5.60;;;;;;;19.82;72.72;94721.09;4206892;28;20097;-58
2022/06/26 04:00:51;;;;;;;7.78;4.75;;;;;;;19.81;72.53;94719.44;4209031;28;20058;-56
2022/06/26 04:02:53;;;;;;;7.28;4.22;;;;;;;19.83;72.28;94717.38;4210043;28;20044;-57
2022/06/26 04:04:55;;;;;;;7.97;4.32;;;;;;;19.90;72.03;94720.81;4209050;28;20059;-55
2022/06/26 04:06:57;;;;;;;10.90;4.50;;;;;;;19.98;71.77;94717.06;4209983;28;20048;-56
2022/06/26 04:08:58;;;;;;;5.90;4.35;;;;;;;20.07;71.54;94717.59;4210059;28;20048;-55
2022/06/26 04:11:00;;;;;;;9.75;4.70;;;;;;;20.15;71.04;94714.69;4209578;28;20064;-57
2022/06/26 04:13:07;;;;;;;6.95;4.20;;;;;;;20.18;70.82;94723.03;4210223;28;20119;-57
2022/06/26 04:15:09;;;;;;;8.30;4.07;;;;;;;20.25;70.32;94707.03;4222029;28;20051;-55
2022/06/26 04:17:11;;;;;;;7.88;5.13;;;;;;;20.30;70.08;94715.16;4209713;28;20083;-56
2022/06/26 04:19:13;;;;;;;10.45;5.63;;;;;;;20.31;70.01;94714.13;4220828;28;20099;-54
2022/06/26 04:21:14;;;;;;;10.10;5.22;;;;;;;20.32;70.01;94714.94;4213813;28;20059;-56
2022/06/26 04:23:16;;;;;;;9.32;5.45;;;;;;;20.34;69.88;94716.34;4209063;28;20044;-55
2022/06/26 04:25:18;;;;;;;11.27;6.00;;;;;;;20.39;69.83;94710.34;4201958;28;20056;-56
2022/06/26 04:27:20;;;;;;;13.95;6.13;;;;;;;20.41;69.73;94709.13;4210099;28;20063;-55
2022/06/26 04:29:21;;;;;;;11.32;5.45;;;;;;;20.45;70.02;94709.50;4210488;28;20043;-55
2022/06/26 04:31:23;;;;;;;7.90;5.13;;;;;;;20.50;70.12;94704.34;4206019;28;20127;-55
2022/06/26 04:33:25;;;;;;;12.40;5.53;;;;;;;20.54;70.11;94710.84;4204341;28;20158;-55
2022/06/26 04:35:27;;;;;;;11.30;5.50;;;;;;;20.57;69.95;94713.09;4208229;28;20047;-55
2022/06/26 04:37:29;;;;;;;9.10;5.43;;;;;;;20.61;69.70;94710.81;4215432;28;20057;-57
2022/06/26 04:39:31;;;;;;;8.97;5.70;;;;;;;20.64;69.49;94711.16;4217561;28;20056;-54
2022/06/26 04:41:36;;;;;;;8.85;5.93;;;;;;;20.68;69.08;94716.84;4212381;28;20160;-55
2022/06/26 04:43:37;;;;;;;10.05;6.53;;;;;;;20.73;68.55;94711.69;4209515;28;20113;-55
2022/06/26 04:45:39;;;;;;;9.35;7.20;;;;;;;20.69;68.72;94710.50;4208279;28;20478;-57
2022/06/26 04:47:41;;;;;;;9.48;7.30;;;;;;;20.67;68.59;94715.22;4209260;28;20105;-56
2022/06/26 04:49:42;;;;;;;9.15;7.07;;;;;;;20.69;68.54;94717.66;4209434;28;20117;-55
2022/06/26 04:51:44;;;;;;;14.45;7.80;;;;;;;20.71;68.34;94716.41;4209136;28;20396;-57
2022/06/26 04:53:46;;;;;;;11.63;8.30;;;;;;;20.60;68.75;94706.50;4199259;28;20106;-58
2022/06/26 04:55:48;;;;;;;10.45;7.72;;;;;;;20.40;69.57;94718.13;4205419;28;20056;-56
2022/06/26 04:57:49;;;;;;;10.57;7.93;;;;;;;19.81;71.69;94725.59;4205958;28;20052;-56
2022/06/26 04:59:51;;;;;;;12.60;8.20;;;;;;;19.35;73.62;94728.50;4207852;28;20109;-57
2022/06/26 05:01:53;;;;;;;13.95;8.00;;;;;;;19.20;74.47;94732.25;4209323;28;20362;-56
2022/06/26 05:03:55;;;;;;;11.43;7.75;;;;;;;19.28;74.54;94727.72;4209374;28;20055;-55
2022/06/26 05:05:57;;;;;;;15.95;8.43;;;;;;;19.32;74.38;94732.41;4208849;28;20489;-56
2022/06/26 05:07:59;;;;;;;12.43;7.78;;;;;;;19.45;74.00;94731.50;4194611;28;20556;-55
2022/06/26 05:10:01;;;;;;;11.57;7.68;;;;;;;19.59;73.57;94730.38;4205006;28;20052;-55
2022/06/26 05:12:03;;;;;;;14.20;8.00;;;;;;;19.71;73.27;94729.75;4202731;28;20047;-56
2022/06/26 05:14:05;;;;;;;12.25;7.95;;;;;;;19.79;72.64;94737.47;4224169;28;20047;-56
2022/06/26 05:16:06;;;;;;;8.95;7.05;;;;;;;19.78;72.23;94739.28;4211554;28;20044;-56
2022/06/26 05:18:09;;;;;;;13.10;7.38;;;;;;;19.83;72.56;94747.47;4208715;28;20047;-56
2022/06/26 05:20:10;;;;;;;16.60;8.07;;;;;;;19.92;72.30;94745.34;4208349;28;20048;-54
2022/06/26 05:22:12;;;;;;;12.20;8.00;;;;;;;19.98;72.28;94754.28;4208513;28;20596;-55
2022/06/26 05:24:14;;;;;;;13.75;8.57;;;;;;;20.05;71.83;94753.22;4205965;28;20056;-55
2022/06/26 05:26:16;;;;;;;14.18;8.52;;;;;;;20.15;72.19;94750.06;4203943;28;20114;-55
2022/06/26 05:28:18;;;;;;;12.93;8.15;;;;;;;20.26;71.42;94759.19;4208152;28;20377;-54
2022/06/26 05:30:20;;;;;;;17.40;8.85;;;;;;;20.32;70.96;94760.97;4207362;28;20127;-54
2022/06/26 05:32:22;;;;;;;13.45;8.38;;;;;;;20.45;70.79;94762.69;4202333;28;20048;-56
2022/06/26 05:34:24;;;;;;;13.13;8.40;;;;;;;20.57;70.30;94762.81;4198936;28;20098;-55
2022/06/26 05:36:26;;;;;;;15.15;8.68;;;;;;;20.71;70.02;94763.50;4209063;28;20275;-56
2022/06/26 05:38:27;;;;;;;13.38;8.52;;;;;;;20.90;69.67;94767.00;4208536;28;20558;-55
2022/06/26 05:40:29;;;;;;;13.32;8.95;;;;;;;21.13;68.83;94761.84;4194096;28;20139;-58
2022/06/26 05:42:31;;;;;;;10.77;8.25;;;;;;;21.33;68.00;94768.75;4207707;28;20044;-56
2022/06/26 05:44:33;;;;;;;17.63;7.75;;;;;;;21.44;67.94;94768.84;4208746;28;20488;-56
2022/06/26 05:46:35;;;;;;;11.80;7.38;;;;;;;21.47;66.93;94772.94;4207195;28;20060;-56
2022/06/26 05:48:37;;;;;;;12.00;6.72;;;;;;;21.33;66.75;94766.09;4208666;28;20056;-56
2022/06/26 05:50:39;;;;;;;11.55;6.53;;;;;;;21.30;66.82;94774.56;4208505;28;20055;-57
2022/06/26 05:52:41;;;;;;;9.52;5.75;;;;;;;21.25;67.03;94769.88;4207929;28;20139;-55
2022/06/26 05:54:50;;;;;;;10.05;5.55;;;;;;;21.41;66.56;94771.13;4207922;28;20580;-56
2022/06/26 05:56:52;;;;;;;9.30;3.60;;;;;;;21.42;65.55;94776.28;4208240;28;20574;-56
2022/06/26 05:58:53;;;;;;;8.05;3.90;;;;;;;21.28;65.33;94772.91;4205292;28;20059;-60
2022/06/26 06:00:55;;;;;;;7.28;3.80;;;;;;;20.91;66.83;94773.94;4206857;28;20508;-58
2022/06/26 06:02:57;;;;;;;7.40;3.35;;;;;;;20.73;67.15;94777.41;4208119;28;20106;-57
2022/06/26 06:04:59;;;;;;;9.55;3.95;;;;;;;20.40;68.12;94775.84;4208175;28;20051;-55
2022/06/26 06:07:00;;;;;;;9.32;3.42;;;;;;;20.41;69.01;94786.28;4208466;28;20052;-56
2022/06/26 06:09:02;;;;;;;8.05;4.00;;;;;;;20.54;67.89;94780.03;4199201;28;20121;-57
2022/06/26 06:11:04;;;;;;;7.40;4.78;;;;;;;20.45;68.61;94776.81;4203592;28;20085;-59
2022/06/26 06:13:06;;;;;;;6.03;4.18;;;;;;;20.35;69.29;94781.84;4207388;28;20468;-57
2022/06/26 06:15:08;;;;;;;6.55;4.25;;;;;;;20.56;69.03;94780.59;4206739;28;20052;-57
2022/06/26 06:19:30;;;;;;;9.27;4.13;;;;;;;20.46;68.79;94778.47;4208572;28;20052;-59
2022/06/26 06:21:32;;;;;;;11.43;5.10;;;;;;;20.38;69.18;94788.56;4207882;28;20056;-54
2022/06/26 06:23:34;;;;;;;8.05;4.60;;;;;;;20.48;69.20;94777.41;4194127;28;20049;-54
2022/06/26 06:25:35;;;;;;;9.77;4.10;;;;;;;20.63;68.68;94776.09;4199206;28;20139;-56
2022/06/26 06:27:37;;;;;;;22.88;7.60;;;;;;;20.91;68.54;94774.78;4211896;28;20085;-58
2022/06/26 06:29:40;;;;;;;6.67;4.30;;;;;;;20.98;68.35;94780.84;4210805;28;20051;-57
2022/06/26 06:31:41;;;;;;;8.27;4.40;;;;;;;20.93;67.82;94783.38;4211012;28;20056;-55
2022/06/26 06:33:43;;;;;;;7.68;4.15;;;;;;;20.64;68.43;94787.53;4208286;28;20074;-55
2022/06/26 06:35:45;;;;;;;7.78;4.20;;;;;;;20.82;68.35;94782.25;4205297;28;20044;-57
2022/06/26 06:37:47;;;;;;;7.03;4.13;;;;;;;21.02;67.91;94781.22;4212140;28;20044;-55
2022/06/26 06:39:49;;;;;;;5.15;3.60;;;;;;;21.14;66.73;94786.59;4211668;28;20552;-49
2022/06/26 06:41:50;;;;;;;6.00;3.58;;;;;;;21.15;66.06;94782.94;4211989;28;20056;-53
2022/06/26 06:43:52;;;;;;;7.05;3.72;;;;;;;21.26;65.61;94777.66;4211788;28;20445;-56
2022/06/26 06:45:54;;;;;;;9.25;4.35;;;;;;;21.39;65.15;94781.19;4210003;28;20055;-56
2022/06/26 06:47:55;;;;;;;6.07;3.70;;;;;;;21.44;65.48;94778.69;4211598;28;20218;-51
2022/06/26 06:49:57;;;;;;;11.27;4.32;;;;;;;21.70;65.00;94784.72;4211246;28;20056;-54
2022/06/26 06:51:59;;;;;;;5.40;3.20;;;;;;;21.93;63.58;94779.47;4211417;28;20052;-50
2022/06/26 06:54:01;;;;;;;6.88;3.53;;;;;;;21.92;62.69;94774.34;4211337;28;20077;-52
2022/06/26 06:56:03;;;;;;;9.95;4.20;;;;;;;21.92;63.13;94779.69;4209907;28;20592;-55
2022/06/26 06:58:05;;;;;;;8.85;3.67;;;;;;;22.05;63.16;94774.97;4207745;28;20048;-57
2022/06/26 07:00:08;;;;;;;6.85;3.72;;;;;;;21.83;62.42;94779.19;4210202;28;20208;-56
2022/06/26 07:02:09;;;;;;;5.70;3.40;;;;;;;21.62;64.18;94778.66;4210635;28;20073;-57
2022/06/26 07:04:12;;;;;;;6.55;4.10;;;;;;;21.70;63.54;94774.84;4211166;28;20075;-52
2022/06/26 07:06:14;;;;;;;8.82;4.15;;;;;;;21.93;63.25;94776.78;4210642;28;20431;-53
2022/06/26 07:08:15;;;;;;;7.50;3.58;;;;;;;22.17;62.38;94771.50;4211095;28;20060;-52
2022/06/26 07:10:17;;;;;;;7.10;4.30;;;;;;;22.30;62.15;94771.31;4210822;28;20052;-51
2022/06/26 07:12:19;;;;;;;6.47;4.03;;;;;;;22.43;61.92;94770.31;4210514;28;20134;-49
2022/06/26 07:14:21;;;;;;;8.75;4.00;;;;;;;22.55;61.58;94776.47;4211242;28;20456;-50
2022/06/26 07:16:22;;;;;;;7.68;4.03;;;;;;;22.58;60.70;94770.66;4208507;28;20051;-52
2022/06/26 07:18:24;;;;;;;10.65;3.80;;;;;;;22.78;60.99;94773.00;4212236;28;20524;-54
2022/06/26 07:20:26;;;;;;;9.32;5.43;;;;;;;22.93;59.91;94780.53;4221581;28;20514;-50
2022/06/26 07:22:28;;;;;;;11.57;4.90;;;;;;;23.14;59.66;94773.78;4202374;28;20174;-50
2022/06/26 07:24:30;;;;;;;7.97;4.13;;;;;;;23.18;60.00;94784.81;4201004;28;20052;-54
2022/06/26 07:26:31;;;;;;;11.02;4.38;;;;;;;22.68;60.25;94776.22;4207391;28;20052;-51
2022/06/26 07:28:33;;;;;;;10.35;3.97;;;;;;;22.65;60.81;94779.38;4193356;28;20117;-50
2022/06/26 07:30:35;;;;;;;6.78;4.78;;;;;;;22.61;61.67;94772.88;4208616;28;20194;-52
2022/06/26 07:32:37;;;;;;;7.90;4.80;;;;;;;22.45;62.22;94782.38;4210487;28;20047;-51
2022/06/26 07:34:38;;;;;;;5.57;4.38;;;;;;;22.64;62.09;94776.94;4206293;28;20153;-52
2022/06/26 07:36:42;;;;;;;8.07;4.32;;;;;;;22.87;61.95;94774.25;4200223;28;20056;-52
2022/06/26 07:38:43;;;;;;;7.15;4.40;;;;;;;23.14;60.78;94768.41;4207194;28;20353;-48
2022/06/26 07:40:45;;;;;;;5.63;4.40;;;;;;;22.75;60.14;94772.63;4210208;28;20059;-47
2022/06/26 07:42:47;;;;;;;7.95;4.20;;;;;;;22.57;60.78;94765.56;4213652;28;20259;-52
2022/06/26 07:44:49;;;;;;;6.18;4.18;;;;;;;22.48;61.24;94773.91;4208596;28;20051;-48
2022/06/26 07:46:50;;;;;;;6.68;4.30;;;;;;;22.54;60.25;94774.81;4213317;28;20437;-51
2022/06/26 07:48:52;;;;;;;7.40;4.22;;;;;;;22.59;60.88;94771.50;4198881;28;20110;-51
2022/06/26 07:50:54;;;;;;;8.45;4.22;;;;;;;22.62;59.90;94768.34;4209396;28;20097;-52
2022/06/26 07:52:56;;;;;;;7.85;4.03;;;;;;;22.62;60.06;94769.16;4210345;28;20055;-50
2022/06/26 07:54:58;;;;;;;8.38;3.92;;;;;;;22.77;59.20;94768.69;4204069;28;20052;-54
2022/06/26 07:56:59;;;;;;;6.00;4.05;;;;;;;22.79;59.40;94760.44;4205668;28;20081;-53
2022/06/26 07:59:02;;;;;;;8.88;4.22;;;;;;;23.04;58.89;94770.91;4209206;28;20052;-50
2022/06/26 08:01:03;;;;;;;10.25;4.38;;;;;;;23.24;57.85;94771.31;4210488;28;20389;-53
2022/06/26 08:03:10;;;;;;;6.47;3.97;;;;;;;23.49;57.63;94763.00;4198999;28;20040;-51
2022/06/26 08:05:12;;;;;;;5.95;3.63;;;;;;;23.57;56.66;94769.00;4210238;28;20137;-51
2022/06/26 08:07:14;;;;;;;5.60;3.58;;;;;;;23.74;56.47;94774.41;4209849;28;20126;-47
2022/06/26 08:09:15;;;;;;;6.60;3.90;;;;;;;23.79;55.17;94774.53;4213081;28;20059;-49
2022/06/26 08:11:18;;;;;;;7.70;3.85;;;;;;;23.95;55.56;94771.09;4209968;28;20134;-53
2022/06/26 08:13:20;;;;;;;6.88;3.75;;;;;;;24.06;54.58;94766.72;4199099;28;20465;-52
2022/06/26 08:15:22;;;;;;;5.20;3.72;;;;;;;24.27;54.52;94762.53;4211340;28;20522;-50
2022/06/26 08:17:24;;;;;;;9.93;4.03;;;;;;;24.44;54.00;94757.19;4213403;28;20449;-52
2022/06/26 08:19:26;;;;;;;7.60;4.07;;;;;;;24.66;53.80;94762.63;4209930;28;20044;-52
2022/06/26 08:23:48;;;;;;;9.13;3.50;;;;;;;24.92;52.86;94759.22;4199082;28;20139;-50
2022/06/26 08:25:50;;;;;;;7.18;4.00;;;;;;;24.94;52.00;94757.13;4201845;28;20529;-49
2022/06/26 08:27:51;;;;;;;6.90;3.55;;;;;;;25.04;51.58;94761.81;4207949;28;20055;-55
2022/06/26 08:29:53;;;;;;;5.85;3.53;;;;;;;24.83;53.07;94771.44;4207598;28;20064;-52
2022/06/26 08:31:55;;;;;;;8.30;3.88;;;;;;;24.73;52.95;94771.28;4208910;28;20336;-51
2022/06/26 08:33:57;;;;;;;6.95;3.50;;;;;;;24.16;54.59;94776.81;4209748;28;20048;-49
2022/06/26 08:35:58;;;;;;;8.07;3.92;;;;;;;24.01;55.13;94764.78;4205456;28;20048;-52
2022/06/26 08:38:00;;;;;;;5.85;4.03;;;;;;;23.79;55.87;94782.53;4195782;28;20106;-49
2022/06/26 08:40:03;;;;;;;5.53;3.58;;;;;;;23.78;55.27;94772.91;4192804;28;20519;-50
2022/06/26 08:42:06;;;;;;;5.60;3.22;;;;;;;23.95;55.63;94767.59;4208370;28;20051;-52
2022/06/26 08:44:08;;;;;;;6.95;4.10;;;;;;;24.21;54.75;94766.16;4209059;28;20461;-50
2022/06/26 08:46:10;;;;;;;5.60;3.13;;;;;;;24.26;53.30;94763.56;4205892;28;20056;-49
2022/06/26 08:48:12;;;;;;;7.50;3.80;;;;;;;24.12;52.54;94769.25;4207738;28;20206;-53
2022/06/26 08:50:14;;;;;;;5.70;2.83;;;;;;;24.09;52.14;94772.41;4207845;28;20105;-49
2022/06/26 08:52:19;;;;;;;7.10;3.22;;;;;;;24.32;51.88;94767.94;4202473;28;20080;-49
2022/06/26 08:54:20;;;;;;;7.13;3.20;;;;;;;24.49;51.96;94766.09;4204638;28;20054;-50
2022/06/26 08:56:23;;;;;;;4.15;2.30;;;;;;;24.39;48.42;94768.59;4219687;28;20054;-49
2022/06/26 08:58:24;;;;;;;6.50;2.65;;;;;;;24.36;48.72;94774.44;4206050;28;20048;-51
2022/06/26 09:00:26;;;;;;;7.32;2.60;;;;;;;24.35;48.73;94772.00;4219533;28;20055;-53
2022/06/26 09:02:31;;;;;;;8.15;2.60;;;;;;;24.05;49.47;94765.09;4208560;28;20125;-53
2022/06/26 09:04:36;;;;;;;6.82;2.65;;;;;;;24.20;49.12;94768.03;4203037;28;20043;-51
2022/06/26 09:06:40;;;;;;;5.15;2.50;;;;;;;24.27;48.71;94759.84;4198485;28;20117;-51
2022/06/26 09:08:43;;;;;;;6.13;2.55;;;;;;;24.36;48.75;94755.69;4216516;28;20059;-52
2022/06/26 09:10:49;;;;;;;7.82;2.78;;;;;;;24.70;48.72;94748.47;4211683;28;20043;-48
2022/06/26 09:12:52;;;;;;;4.75;2.30;;;;;;;25.04;48.25;94747.63;4208029;28;20052;-51
2022/06/26 09:14:54;;;;;;;4.53;2.45;;;;;;;25.27;47.98;94747.38;4206296;28;20476;-50
2022/06/26 09:16:56;;;;;;;4.55;2.40;;;;;;;25.51;46.64;94753.31;4208686;28;20048;-54
2022/06/26 09:19:16;;;;;;;8.50;3.50;;;;;;;25.37;48.27;94754.75;4208776;28;20050;-50
2022/06/26 09:21:25;;;;;;;6.20;2.60;;;;;;;25.14;46.56;94747.72;4208103;28;20421;-48
2022/06/26 09:23:27;;;;;;;4.38;2.92;;;;;;;25.07;48.13;94747.09;4195965;28;20056;-54
2022/06/26 09:25:43;;;;;;;4.30;2.90;;;;;;;25.30;48.63;94752.25;4201834;28;20139;-52
2022/06/26 09:27:45;;;;;;;5.85;2.60;;;;;;;25.31;47.86;94751.19;4205582;28;20047;-49
2022/06/26 09:29:49;;;;;;;4.82;3.00;;;;;;;25.38;46.62;94752.88;4205541;28;20056;-47
2022/06/26 09:31:51;;;;;;;4.20;3.42;;;;;;;25.46;46.89;94741.69;4207199;28;20055;-52
2022/06/26 09:33:53;;;;;;;4.97;2.60;;;;;;;25.66;46.86;94752.66;4206955;28;20471;-53
2022/06/26 09:35:56;;;;;;;6.55;3.17;;;;;;;25.91;44.98;94752.13;4208478;28;20060;-47
2022/06/26 09:37:58;;;;;;;9.85;2.67;;;;;;;25.90;43.06;94747.03;4198443;28;20056;-55
2022/06/26 09:40:02;;;;;;;5.63;2.13;;;;;;;25.83;44.18;94749.06;4207884;28;20174;-50
2022/06/26 09:42:17;;;;;;;4.95;1.90;;;;;;;25.40;43.22;94742.69;4206799;28;20488;-54
2022/06/26 09:44:22;;;;;;;5.43;2.15;;;;;;;25.45;43.90;94746.25;4196697;28;20113;-54
2022/06/26 09:46:32;;;;;;;5.13;1.98;;;;;;;25.61;44.17;94754.47;4209671;28;20044;-51